Terminal Aerodrome Forecast
Issued by NWS Buffalo, NY

Home | Current Version | Previous Version | Text Only | Print | Product List | Glossary On
Versions: 1 2 3 4 5 6 7 8 9 10 11 12 13 14 15 16 17 18 19 20 21 22 23 24 25 26 27 28 29
573
FTUS41 KBUF 111753
TAFBUF
TAF
KBUF 111753Z 1118/1218 29013G20KT P6SM VCSH BKN035
     FM120100 28009KT P6SM SCT250
     FM120600 24007KT P6SM VCSH OVC025
     FM121400 24010KT 2SM -SN OVC015
     FM121700 23015G26KT 3/4SM -SN BLSN OVC007=

USA.gov is the U.S. government's official web portal to all federal, state and local government web resources and services.